Live from Altenrhein
LIVE
LSZR 161450Z 32003KT 260V360 9999 FEW050 25/13 Q1021 NOSIG RMK L

People´s C-Office:

T: +41 (0)71 858 51 65

E: c-office@peoples.ch

Special Services

Your Trip to Davos.

We would like to make your trip to Davos as comfortable as possible. Let us know which services you would prefer and we will take care of the rest for you. Your handling request can easily sent per mail to groundservices@peoples.ch

Conference room

Use our Business Airport St. Gallen conference room for your meetings! If you have any questions or would like to make reservations, please do not hesitate to contact our C-Office.


Business Lounge

    

The People’s Business Airport is glad to offer a free business lounge to all passengers and pilots of private or business aviation. Enjoy the quiet and comfortable lounge and take advantage of the food and drink facilities. Additionally, we have also provided wireless internet connection and a computer with a printer.

Catering

       

We would love to provide you with an unforgettable on-board menu according to your wishes. Let us cater your flight with fresh, delicious local food as well as international dishes. Catering will be delivered directly to your aircraft. Catering order LSZR


Accommodation

      

We can recommend several hotels close to the airport and can offer you special room rates. The C-Office would be glad to do the bookings for you. Hotels and crew transportation